createdAt,value
2018-12-23T00:01:52.162Z,30.80
2018-12-23T00:04:19.767Z,30.00
2018-12-23T00:06:47.412Z,29.00
2018-12-23T00:09:15.339Z,29.00
2018-12-23T00:11:42.947Z,28.60
2018-12-23T00:14:10.586Z,28.20
2018-12-23T00:16:38.193Z,28.10
2018-12-23T00:19:05.797Z,28.40
2018-12-23T00:21:33.450Z,28.80
2018-12-23T00:24:01.058Z,28.00
2018-12-23T00:26:28.712Z,27.00
2018-12-23T00:28:56.338Z,26.80
2018-12-23T00:31:23.935Z,26.50
2018-12-23T00:33:51.535Z,26.40
2018-12-23T00:36:19.176Z,26.40
2018-12-23T00:38:46.791Z,26.00
2018-12-23T00:41:14.393Z,26.50
2018-12-23T00:43:42.024Z,26.00
2018-12-23T00:46:09.619Z,25.90
2018-12-23T00:48:37.226Z,26.60
2018-12-23T00:51:04.858Z,26.60
2018-12-23T00:53:32.461Z,26.90
2018-12-23T00:56:00.058Z,27.00
2018-12-23T00:58:27.817Z,27.70
2018-12-23T01:00:55.426Z,27.40
2018-12-23T01:03:23.022Z,27.40
2018-12-23T01:05:50.658Z,27.10
2018-12-23T01:08:18.255Z,27.10
2018-12-23T01:10:45.848Z,26.60
2018-12-23T01:13:13.496Z,26.10
2018-12-23T01:15:41.098Z,26.20
2018-12-23T01:18:08.699Z,26.30
2018-12-23T01:20:37.124Z,27.20
2018-12-23T01:23:04.733Z,27.30
2018-12-23T01:25:32.331Z,26.70
2018-12-23T01:28:00.007Z,26.60
2018-12-23T01:30:27.621Z,27.40
2018-12-23T01:32:55.315Z,27.70
2018-12-23T01:35:22.995Z,28.70
2018-12-23T01:37:50.596Z,28.80
2018-12-23T01:40:18.193Z,28.90
2018-12-23T01:42:45.832Z,29.10
2018-12-23T01:45:13.487Z,28.80
2018-12-23T01:47:41.131Z,29.20
2018-12-23T01:50:08.764Z,28.50
2018-12-23T01:52:36.360Z,29.10
2018-12-23T01:55:05.423Z,29.00
2018-12-23T01:57:33.387Z,29.20
2018-12-23T02:00:00.989Z,29.00
2018-12-23T02:02:28.594Z,28.90
2018-12-23T02:04:56.228Z,28.60
2018-12-23T02:07:23.825Z,28.50
2018-12-23T02:09:51.431Z,29.10
2018-12-23T02:12:19.352Z,27.60
2018-12-23T02:14:46.962Z,27.20
2018-12-23T02:17:14.576Z,27.30
2018-12-23T02:19:42.208Z,27.40
2018-12-23T02:22:09.812Z,27.40
2018-12-23T02:24:37.465Z,27.20
2018-12-23T02:27:05.099Z,27.30
2018-12-23T02:29:32.750Z,27.60
2018-12-23T02:32:00.354Z,26.60
2018-12-23T02:34:27.971Z,26.20
2018-12-23T02:36:55.584Z,25.00
2018-12-23T02:39:23.197Z,24.50
2018-12-23T02:41:50.835Z,24.40
2018-12-23T02:44:18.431Z,24.70
2018-12-23T02:46:46.025Z,25.00
2018-12-23T02:49:13.666Z,25.20
2018-12-23T02:51:41.275Z,24.80
2018-12-23T02:54:08.888Z,24.20
2018-12-23T02:56:36.525Z,24.40
2018-12-23T02:59:04.131Z,24.00
2018-12-23T03:01:31.794Z,24.00
2018-12-23T03:03:59.401Z,24.70
2018-12-23T03:06:26.995Z,24.10
2018-12-23T03:08:54.618Z,24.20
2018-12-23T03:11:22.229Z,24.40
2018-12-23T03:13:49.871Z,24.30
2018-12-23T03:16:17.510Z,23.80
2018-12-23T03:18:45.135Z,23.70
2018-12-23T03:21:12.762Z,23.60
2018-12-23T03:23:40.409Z,23.90
2018-12-23T03:26:08.018Z,24.40
2018-12-23T03:28:35.628Z,24.70
2018-12-23T03:31:03.260Z,25.00
2018-12-23T03:33:30.867Z,25.50
2018-12-23T03:35:58.477Z,25.20
2018-12-23T03:38:26.115Z,25.20
2018-12-23T03:40:53.719Z,25.20
2018-12-23T03:43:21.340Z,25.10
2018-12-23T03:45:48.996Z,25.10
2018-12-23T03:48:16.647Z,24.50
2018-12-23T03:50:44.256Z,25.20
2018-12-23T03:53:11.893Z,25.00
2018-12-23T03:55:39.541Z,24.60
2018-12-23T03:58:07.239Z,24.60
2018-12-23T04:00:35.700Z,24.60
2018-12-23T04:03:03.390Z,24.60
2018-12-23T04:05:30.986Z,25.60
2018-12-23T04:07:58.634Z,24.90
2018-12-23T04:10:27.082Z,24.20
2018-12-23T04:12:54.675Z,23.70
2018-12-23T04:15:22.549Z,23.50
2018-12-23T04:17:50.164Z,23.80
2018-12-23T04:20:18.333Z,24.10
2018-12-23T04:22:45.950Z,24.00
2018-12-23T04:25:13.562Z,23.80
2018-12-23T04:27:41.168Z,23.50
2018-12-23T04:30:08.803Z,23.80
2018-12-23T04:32:36.407Z,23.70
2018-12-23T04:35:04.009Z,23.50
2018-12-23T04:37:31.648Z,23.40
2018-12-23T04:39:59.250Z,22.90
2018-12-23T04:42:26.857Z,23.00
2018-12-23T04:44:54.491Z,23.00
2018-12-23T04:47:23.268Z,23.50
2018-12-23T04:49:50.867Z,23.30
2018-12-23T04:52:18.861Z,22.60
2018-12-23T04:54:46.456Z,22.10
2018-12-23T04:57:14.049Z,22.10
2018-12-23T04:59:41.681Z,22.00
2018-12-23T05:02:09.287Z,21.90
2018-12-23T05:04:36.937Z,21.90
2018-12-23T05:07:04.794Z,21.80
2018-12-23T05:09:32.395Z,21.80
2018-12-23T05:12:00.000Z,22.10
2018-12-23T05:14:27.652Z,22.10
2018-12-23T05:16:56.040Z,22.30
2018-12-23T05:19:23.654Z,22.40
2018-12-23T05:21:51.290Z,22.30
2018-12-23T05:24:18.914Z,22.70
2018-12-23T05:26:46.521Z,22.40
2018-12-23T05:29:14.145Z,22.40
2018-12-23T05:31:41.750Z,22.30
2018-12-23T05:34:09.359Z,22.40
2018-12-23T05:36:36.998Z,22.30
2018-12-23T05:39:06.065Z,23.10
2018-12-23T05:41:33.678Z,23.80
2018-12-23T05:44:01.331Z,23.00
2018-12-23T05:46:28.933Z,22.40
2018-12-23T05:48:56.544Z,22.10
2018-12-23T05:51:24.188Z,21.70
2018-12-23T05:53:51.795Z,21.60
2018-12-23T05:56:19.513Z,21.50
2018-12-23T05:58:47.182Z,21.60
2018-12-23T06:01:14.791Z,22.00
2018-12-23T06:03:42.397Z,21.80
2018-12-23T06:06:10.096Z,21.50
2018-12-23T06:08:37.706Z,21.90
2018-12-23T06:11:05.320Z,21.70
2018-12-23T06:13:32.965Z,21.50
2018-12-23T06:16:00.560Z,21.50
2018-12-23T06:18:28.175Z,21.60
2018-12-23T06:20:55.813Z,21.60
2018-12-23T06:23:23.426Z,21.50
2018-12-23T06:25:51.031Z,21.50
2018-12-23T06:28:18.662Z,21.70
2018-12-23T06:30:46.269Z,22.00
2018-12-23T06:33:13.888Z,22.10
2018-12-23T06:35:41.536Z,22.10
2018-12-23T06:38:09.143Z,22.20
2018-12-23T06:40:36.743Z,22.70
2018-12-23T06:43:04.389Z,23.50
2018-12-23T06:45:31.995Z,23.70
2018-12-23T06:47:59.597Z,24.30
2018-12-23T06:50:27.235Z,23.70
2018-12-23T06:52:54.863Z,24.00
2018-12-23T06:55:22.497Z,24.80
2018-12-23T06:57:50.495Z,25.10
2018-12-23T07:00:18.103Z,24.80
2018-12-23T07:02:45.701Z,23.90
2018-12-23T07:05:13.333Z,23.10
2018-12-23T07:07:41.007Z,22.80
2018-12-23T07:10:08.607Z,23.00
2018-12-23T07:12:36.237Z,23.20
2018-12-23T07:15:03.846Z,23.20
2018-12-23T07:17:31.458Z,23.70
2018-12-23T07:19:59.088Z,24.40
2018-12-23T07:22:26.716Z,24.60
2018-12-23T07:24:54.323Z,24.90
2018-12-23T07:27:21.961Z,25.50
2018-12-23T07:29:49.567Z,25.50
2018-12-23T07:32:17.170Z,25.70
2018-12-23T07:34:44.813Z,25.20
2018-12-23T07:37:12.426Z,25.90
2018-12-23T07:39:40.027Z,25.50
2018-12-23T07:42:07.662Z,24.60
2018-12-23T07:44:35.266Z,24.50
2018-12-23T07:47:02.878Z,24.20
2018-12-23T07:49:30.510Z,24.60
2018-12-23T07:51:58.182Z,24.30
2018-12-23T07:54:25.793Z,24.20
2018-12-23T07:56:53.428Z,24.90
2018-12-23T07:59:21.030Z,24.70
2018-12-23T08:01:48.641Z,24.10
2018-12-23T08:04:16.554Z,24.00
2018-12-23T08:06:44.162Z,25.00
2018-12-23T08:09:11.784Z,24.60
2018-12-23T08:11:39.669Z,24.40
2018-12-23T08:14:07.302Z,24.00
2018-12-23T08:16:34.917Z,23.50
2018-12-23T08:19:02.539Z,23.40
2018-12-23T08:21:30.163Z,23.60
2018-12-23T08:23:57.769Z,23.70
2018-12-23T08:26:25.404Z,23.70
2018-12-23T08:28:53.012Z,23.60
2018-12-23T08:31:20.816Z,23.60
2018-12-23T08:33:49.234Z,23.30
2018-12-23T08:36:16.869Z,23.30
2018-12-23T08:38:44.469Z,23.30
2018-12-23T08:41:12.098Z,23.60
2018-12-23T08:43:39.706Z,23.40
2018-12-23T08:46:07.311Z,23.60
2018-12-23T08:48:34.938Z,23.60
2018-12-23T08:51:02.612Z,24.10
2018-12-23T08:53:30.220Z,24.00
2018-12-23T08:55:57.848Z,23.90
2018-12-23T08:58:25.443Z,24.00
2018-12-23T09:00:53.037Z,24.20
2018-12-23T09:03:20.714Z,24.10
2018-12-23T09:05:48.416Z,24.20
2018-12-23T09:08:16.177Z,24.20
2018-12-23T09:10:43.837Z,24.40
2018-12-23T09:13:11.544Z,24.30
2018-12-23T09:15:39.151Z,24.10
2018-12-23T09:18:06.784Z,24.40
2018-12-23T09:20:34.389Z,24.00
2018-12-23T09:23:01.991Z,24.30
2018-12-23T09:25:29.627Z,24.80
2018-12-23T09:27:57.244Z,24.70
2018-12-23T09:30:24.844Z,25.10
2018-12-23T09:32:52.481Z,24.80
2018-12-23T09:35:20.082Z,24.80
2018-12-23T09:37:47.683Z,25.30
2018-12-23T09:40:15.418Z,25.30
2018-12-23T09:42:43.028Z,25.60
2018-12-23T09:45:10.637Z,26.10
2018-12-23T09:47:38.263Z,26.40
2018-12-23T09:50:07.722Z,26.10
2018-12-23T09:52:35.332Z,25.40
2018-12-23T09:55:02.977Z,25.40
2018-12-23T09:57:30.618Z,25.50
2018-12-23T09:59:58.231Z,24.80
2018-12-23T10:02:25.865Z,24.60
2018-12-23T10:04:53.465Z,25.00
2018-12-23T10:07:21.193Z,25.40
2018-12-23T10:09:48.910Z,24.90
2018-12-23T10:12:16.519Z,24.60
2018-12-23T10:14:44.126Z,24.60
2018-12-23T10:17:11.770Z,26.10
2018-12-23T10:19:39.370Z,25.80
2018-12-23T10:22:07.006Z,25.90
2018-12-23T10:24:34.643Z,26.80
2018-12-23T10:27:02.244Z,28.10
2018-12-23T10:29:29.877Z,27.90
2018-12-23T10:31:57.553Z,28.50
2018-12-23T10:34:25.155Z,27.80
2018-12-23T10:36:52.815Z,26.30
2018-12-23T10:39:20.455Z,28.20
2018-12-23T10:41:48.097Z,29.40
2018-12-23T10:44:15.707Z,29.00
2018-12-23T10:46:43.370Z,29.70
2018-12-23T10:49:11.242Z,31.40
2018-12-23T10:51:38.838Z,33.20
2018-12-23T10:54:06.489Z,34.30
2018-12-23T10:56:34.116Z,35.60
2018-12-23T10:59:01.725Z,36.00
2018-12-23T11:01:29.360Z,36.00
2018-12-23T11:03:56.969Z,37.80
2018-12-23T11:06:24.586Z,37.20
2018-12-23T11:08:52.233Z,37.10
2018-12-23T11:11:19.897Z,37.40
2018-12-23T11:13:47.539Z,41.00
2018-12-23T11:16:15.212Z,41.90
2018-12-23T11:18:42.858Z,43.00
2018-12-23T11:21:10.497Z,42.70
2018-12-23T11:23:38.128Z,40.80
2018-12-23T11:26:05.734Z,41.40
2018-12-23T11:28:33.344Z,42.60
2018-12-23T11:31:00.968Z,43.40
2018-12-23T11:33:28.599Z,43.20
2018-12-23T11:35:56.205Z,43.00
2018-12-23T11:38:23.882Z,42.30
2018-12-23T11:40:51.491Z,41.80
2018-12-23T11:43:19.123Z,41.10
2018-12-23T11:45:46.764Z,40.80
2018-12-23T11:48:14.382Z,41.50
2018-12-23T11:50:42.001Z,43.20
2018-12-23T11:53:09.646Z,42.90
2018-12-23T11:55:37.265Z,43.00
2018-12-23T11:58:04.880Z,43.00
2018-12-23T12:00:32.505Z,42.30
2018-12-23T12:03:00.112Z,42.50
2018-12-23T12:05:27.716Z,43.70
2018-12-23T12:07:55.655Z,43.40
2018-12-23T12:10:23.269Z,42.80
2018-12-23T12:12:50.897Z,43.10
2018-12-23T12:15:18.539Z,42.60
2018-12-23T12:17:46.149Z,42.90
2018-12-23T12:20:13.758Z,42.60
2018-12-23T12:22:41.434Z,42.30
2018-12-23T12:25:09.039Z,42.90
2018-12-23T12:27:36.650Z,43.50
2018-12-23T12:30:04.736Z,42.40
2018-12-23T12:32:32.341Z,43.00
2018-12-23T12:34:59.967Z,42.10
2018-12-23T12:37:27.634Z,40.80
2018-12-23T12:39:55.246Z,41.00
2018-12-23T12:42:22.854Z,41.00
2018-12-23T12:44:50.488Z,41.30
2018-12-23T12:47:18.106Z,41.60
2018-12-23T12:49:45.712Z,40.50
2018-12-23T12:52:13.342Z,38.50
2018-12-23T12:54:40.982Z,39.00
2018-12-23T12:57:08.587Z,40.60
2018-12-23T12:59:36.226Z,40.00
2018-12-23T13:02:03.841Z,39.90
2018-12-23T13:04:31.446Z,40.10
2018-12-23T13:06:59.073Z,40.40
2018-12-23T13:09:26.691Z,37.50
2018-12-23T13:11:54.311Z,37.60
2018-12-23T13:14:22.500Z,40.30
2018-12-23T13:16:50.106Z,43.00
2018-12-23T13:19:17.728Z,43.70
2018-12-23T13:21:45.452Z,43.00
2018-12-23T13:24:13.718Z,41.00
2018-12-23T13:26:41.338Z,40.80
2018-12-23T13:29:08.979Z,42.30
2018-12-23T13:31:36.607Z,41.60
2018-12-23T13:34:04.289Z,41.90
2018-12-23T13:36:31.931Z,42.10
2018-12-23T13:38:59.540Z,41.30
2018-12-23T13:41:32.029Z,36.70
2018-12-23T13:44:06.644Z,36.80
2018-12-23T13:46:41.939Z,38.80
2018-12-23T13:49:18.194Z,39.00
2018-12-23T13:51:53.751Z,38.80
2018-12-23T13:58:08.019Z,37.90
2018-12-23T14:00:48.978Z,36.30
2018-12-23T14:03:20.828Z,36.50
2018-12-23T14:06:12.718Z,38.50
2018-12-23T14:09:02.964Z,38.40
2018-12-23T14:11:51.119Z,39.00
2018-12-23T14:14:19.944Z,41.00
2018-12-23T14:16:48.635Z,39.20
2018-12-23T14:19:17.406Z,38.70
2018-12-23T14:21:46.581Z,39.80
2018-12-23T14:24:15.244Z,40.00
2018-12-23T14:26:43.996Z,41.50
2018-12-23T14:29:12.648Z,41.80
2018-12-23T14:31:41.260Z,42.50
2018-12-23T14:34:09.950Z,42.30
2018-12-23T14:36:38.674Z,43.00
2018-12-23T14:39:07.342Z,43.40
2018-12-23T14:41:36.127Z,42.10
2018-12-23T14:44:04.864Z,40.80
2018-12-23T14:46:33.634Z,41.10
2018-12-23T14:49:02.308Z,40.50
2018-12-23T14:51:31.080Z,39.60
2018-12-23T14:53:59.770Z,40.70
2018-12-23T14:56:28.441Z,41.50
2018-12-23T14:58:57.223Z,41.30
2018-12-23T15:01:25.986Z,41.00
2018-12-23T15:03:54.679Z,40.90
2018-12-23T15:06:23.381Z,40.90
2018-12-23T15:08:52.053Z,41.30
2018-12-23T15:11:20.671Z,40.00
2018-12-23T15:13:49.306Z,38.20
2018-12-23T15:16:18.034Z,39.10
2018-12-23T15:18:46.764Z,39.80
2018-12-23T15:21:15.478Z,40.00
2018-12-23T15:23:44.160Z,40.90
2018-12-23T15:26:12.836Z,39.50
2018-12-23T15:28:41.627Z,39.10
2018-12-23T15:31:11.660Z,39.80
2018-12-23T15:33:40.332Z,41.00
2018-12-23T15:36:09.353Z,43.30
2018-12-23T15:38:38.096Z,43.20
2018-12-23T15:41:06.837Z,42.60
2018-12-23T15:43:35.547Z,40.70
2018-12-23T15:46:04.211Z,40.20
2018-12-23T15:48:32.901Z,38.30
2018-12-23T15:51:07.893Z,39.30
2018-12-23T15:53:32.441Z,40.40
2018-12-23T15:56:01.101Z,41.20
2018-12-23T15:58:29.889Z,41.10
2018-12-23T16:00:58.571Z,40.40
2018-12-23T16:03:27.252Z,40.40
2018-12-23T16:05:55.959Z,40.00
2018-12-23T16:08:26.277Z,40.60
2018-12-23T16:10:56.632Z,40.90
2018-12-23T16:13:25.524Z,40.30
2018-12-23T16:15:57.332Z,39.50
2018-12-23T16:18:26.073Z,38.50
2018-12-23T16:20:57.927Z,38.30
2018-12-23T16:23:28.131Z,37.60
2018-12-23T16:25:58.881Z,36.80
2018-12-23T16:28:27.510Z,38.10
2018-12-23T16:30:56.179Z,38.20
2018-12-23T16:33:28.703Z,39.80
2018-12-23T16:35:56.883Z,40.50
2018-12-23T16:38:25.620Z,40.20
2018-12-23T16:40:54.365Z,40.70
2018-12-23T16:43:23.116Z,41.30
2018-12-23T16:45:51.872Z,39.60
2018-12-23T16:48:22.973Z,39.20
2018-12-23T16:50:51.770Z,40.10
2018-12-23T16:53:21.732Z,39.80
2018-12-23T16:55:50.399Z,39.60
2018-12-23T16:58:19.185Z,39.00
2018-12-23T17:00:47.944Z,39.20
2018-12-23T17:03:16.688Z,40.90
2018-12-23T17:05:45.406Z,40.90
2018-12-23T17:08:14.576Z,41.40
2018-12-23T17:10:43.312Z,42.50
2018-12-23T17:13:12.120Z,43.10
2018-12-23T17:15:40.863Z,43.10
2018-12-23T17:18:09.589Z,41.40
2018-12-23T17:20:44.150Z,40.80
2018-12-23T17:23:32.447Z,39.40
2018-12-23T17:26:01.163Z,41.00
2018-12-23T17:28:29.826Z,41.90
2018-12-23T17:30:58.496Z,42.00
2018-12-23T17:33:27.281Z,39.40
2018-12-23T17:35:56.041Z,39.80
2018-12-23T17:38:25.980Z,41.90
2018-12-23T17:40:54.604Z,41.30
2018-12-23T17:43:23.323Z,40.00
2018-12-23T17:45:51.914Z,40.10
2018-12-23T17:48:20.746Z,40.30
2018-12-23T17:50:49.463Z,38.20
2018-12-23T17:53:18.572Z,39.20
2018-12-23T17:55:51.138Z,38.90
2018-12-23T17:58:20.281Z,36.90
2018-12-23T18:00:49.037Z,36.30
2018-12-23T18:03:17.821Z,35.60
2018-12-23T18:05:46.525Z,35.70
2018-12-23T18:08:15.198Z,36.00
2018-12-23T18:10:43.992Z,33.70
2018-12-23T18:13:16.410Z,33.00
2018-12-23T18:15:44.709Z,32.90
2018-12-23T18:18:13.495Z,34.00
2018-12-23T18:20:42.251Z,33.20
2018-12-23T18:23:10.988Z,34.40
2018-12-23T18:25:45.504Z,34.00
2018-12-23T18:28:14.208Z,32.50
2018-12-23T18:30:43.344Z,30.80
2018-12-23T18:33:11.993Z,32.00
2018-12-23T18:35:40.742Z,30.30
2018-12-23T18:38:09.412Z,30.90
2018-12-23T18:40:38.128Z,30.00
2018-12-23T18:43:06.874Z,28.60
2018-12-23T18:45:36.004Z,28.30
2018-12-23T18:48:04.724Z,28.60
2018-12-23T18:50:33.888Z,28.50
2018-12-23T18:53:02.636Z,29.20
2018-12-23T18:55:32.524Z,28.30
2018-12-23T18:58:01.268Z,28.50
2018-12-23T19:00:30.024Z,28.50
2018-12-23T19:02:58.817Z,28.20
2018-12-23T19:05:27.497Z,28.50
2018-12-23T19:07:56.248Z,28.90
2018-12-23T19:10:28.174Z,28.60
2018-12-23T19:13:03.301Z,27.90
2018-12-23T19:15:46.944Z,27.80
2018-12-23T19:18:37.023Z,28.90
2018-12-23T19:21:08.934Z,28.80
2018-12-23T19:23:58.950Z,29.20
2018-12-23T19:26:45.539Z,29.20
2018-12-23T19:29:38.469Z,28.60
2018-12-23T19:32:28.465Z,28.50
2018-12-23T19:35:20.321Z,28.30
2018-12-23T19:38:14.827Z,28.30
2018-12-23T19:41:03.119Z,28.70
2018-12-23T19:43:54.485Z,29.00
2018-12-23T19:46:56.949Z,29.20
2018-12-23T19:49:51.144Z,28.80
2018-12-23T19:52:28.930Z,29.40
2018-12-23T19:55:02.157Z,28.90
2018-12-23T19:57:34.018Z,29.70
2018-12-23T20:00:17.746Z,29.70
2018-12-23T20:02:49.540Z,29.20
2018-12-23T20:05:39.229Z,30.00
2018-12-23T20:08:18.249Z,29.00
2018-12-23T20:10:59.477Z,29.60
2018-12-23T20:13:52.577Z,28.70
2018-12-23T20:16:40.804Z,29.20
2018-12-23T20:19:24.747Z,29.30
2018-12-23T20:22:02.841Z,28.50
2018-12-23T20:24:40.400Z,28.30
2018-12-23T20:27:28.878Z,28.30
2018-12-23T20:30:16.553Z,28.10
2018-12-23T20:33:00.370Z,27.70
2018-12-23T20:35:47.516Z,27.30
2018-12-23T20:38:51.269Z,27.80
2018-12-23T20:41:25.644Z,27.70
2018-12-23T20:44:26.378Z,27.60
2018-12-23T20:46:58.275Z,29.00
2018-12-23T20:49:35.385Z,30.20
2018-12-23T20:52:41.914Z,30.00
2018-12-23T20:55:19.992Z,30.60
2018-12-23T20:57:54.936Z,30.20
2018-12-23T21:00:45.138Z,32.00
2018-12-23T21:03:22.904Z,33.20
2018-12-23T21:06:15.455Z,34.00
2018-12-23T21:09:02.109Z,33.50
2018-12-23T21:11:37.918Z,33.80
2018-12-23T21:14:29.755Z,33.50
2018-12-23T21:17:30.178Z,32.40
2018-12-23T21:20:11.550Z,31.50
2018-12-23T21:22:43.484Z,30.80
2018-12-23T21:25:39.514Z,31.30
2018-12-23T21:28:20.153Z,31.60
2018-12-23T21:30:57.824Z,31.00
2018-12-23T21:33:44.612Z,29.80
2018-12-23T21:36:19.309Z,31.40
2018-12-23T21:39:13.776Z,31.60
2018-12-23T21:41:57.400Z,30.50
2018-12-23T21:45:04.466Z,31.90
2018-12-23T21:47:45.225Z,32.00
2018-12-23T21:50:28.982Z,31.40
2018-12-23T21:53:19.216Z,29.70
2018-12-23T21:55:54.494Z,29.60
2018-12-23T21:58:32.403Z,29.60
2018-12-23T22:01:06.930Z,30.00
2018-12-23T22:04:11.833Z,30.20
2018-12-23T22:07:01.986Z,30.80
2018-12-23T22:10:02.610Z,30.50
2018-12-23T22:12:40.574Z,29.90
2018-12-23T22:15:09.212Z,30.20
2018-12-23T22:17:37.956Z,30.80
2018-12-23T22:20:06.735Z,31.70
2018-12-23T22:22:35.427Z,29.30
2018-12-23T22:25:04.108Z,30.20
2018-12-23T22:27:32.886Z,29.60
2018-12-23T22:30:01.692Z,29.00
2018-12-23T22:32:30.402Z,28.80
2018-12-23T22:34:59.292Z,28.50
2018-12-23T22:37:28.045Z,28.50
2018-12-23T22:39:56.817Z,28.30
2018-12-23T22:42:25.634Z,27.70
2018-12-23T22:44:54.436Z,28.10
2018-12-23T22:47:23.211Z,27.70
2018-12-23T22:49:52.777Z,27.20
2018-12-23T22:52:23.064Z,27.60
2018-12-23T22:54:51.853Z,26.80
2018-12-23T22:57:20.622Z,27.10
2018-12-23T22:59:49.277Z,27.00
2018-12-23T23:02:18.033Z,27.30
2018-12-23T23:04:46.857Z,27.40
2018-12-23T23:07:15.599Z,27.50
2018-12-23T23:09:44.401Z,27.60
2018-12-23T23:12:13.219Z,27.70
2018-12-23T23:14:41.934Z,27.90
2018-12-23T23:17:10.677Z,28.30
2018-12-23T23:19:39.857Z,29.10
2018-12-23T23:22:08.531Z,28.30
2018-12-23T23:24:37.328Z,28.50
2018-12-23T23:27:06.055Z,27.60
2018-12-23T23:29:34.725Z,28.40
2018-12-23T23:32:03.528Z,28.10
2018-12-23T23:34:32.325Z,29.80
2018-12-23T23:37:01.009Z,31.80
2018-12-23T23:39:29.694Z,33.70
2018-12-23T23:41:58.778Z,35.40
2018-12-23T23:44:27.664Z,35.20
2018-12-23T23:46:56.335Z,35.60
2018-12-23T23:49:25.296Z,35.00
2018-12-23T23:51:54.012Z,35.90
2018-12-23T23:54:22.760Z,37.00
2018-12-23T23:56:51.478Z,35.30
2018-12-23T23:59:20.231Z,35.40
